Farm — LBHF — position and weather

sailwx.info

Track history (hours):
 
Tides and Currents Weather Stations Pressure Air Temp Water Temp Dewpoint Dewpoint Depression Visibility Wind Speed Wind Dir Waves Ship Positions

Farm

Last reported at 2015-Aug-27 19:30 UTC. Time now 2015-Aug-28 22:23 UTC.
Position N 65°13' E 012°13'.

Length 46 m; draft 4 m.

Type: Law enforcement. MMSI: 257069200.

Date/timePositionNaut miles runAvg speedWind from/ knotsBaromVisibWave heightAir tempDewpointWater temp
2015-Aug-27 19:30N 65°13' E 012°13'8 7.0
2015-Aug-27 18:26N 65°13' E 011°55'  
2015-Aug-23 18:33N 66°19' E 012°56'16 3.9
2015-Aug-23 14:33N 66°35' E 012°59'5 2.2
2015-Aug-23 12:21N 66°37' E 013°09'0 0.2
2015-Aug-23 11:18N 66°37' E 013°09'0 0.2
2015-Aug-23 10:33N 66°37' E 013°10'0 0.1
2015-Aug-23 08:31N 66°38' E 013°10'8 1.9
2015-Aug-23 04:09N 66°46' E 013°13'3 5.7
2015-Aug-23 03:33N 66°49' E 013°16'5 5.2
2015-Aug-23 02:33N 66°54' E 013°20'5 5.1
2015-Aug-23 01:33N 66°59' E 013°22'5 4.6
2015-Aug-23 00:33N 67°03' E 013°26'4 4.3
2015-Aug-22 23:33N 67°07' E 013°31'4 4.2
2015-Aug-22 22:33N 67°11' E 013°35'4 4.2
2015-Aug-22 21:33N 67°15' E 013°41'5 4.6
2015-Aug-22 20:33N 67°19' E 013°46'  
Track history (hours):
 
Tides and Currents Weather Stations Pressure Air Temp Water Temp Dewpoint Dewpoint Depression Visibility Wind Speed Wind Dir Waves Ship Positions

Farm

Last reported at 2015-Aug-27 19:30 UTC. Time now 2015-Aug-28 22:23 UTC.
Position N 65°13' E 012°13'.

Length 46 m; draft 4 m.

Type: Law enforcement. MMSI: 257069200.

Date/timePositionNaut miles runAvg speedWind from/ knotsBaromVisibWave heightAir tempDewpointWater temp
2015-Aug-27 19:30N 65°13' E 012°13'8 7.0
2015-Aug-27 18:26N 65°13' E 011°55'  
2015-Aug-23 18:33N 66°19' E 012°56'16 3.9
2015-Aug-23 14:33N 66°35' E 012°59'5 2.2
2015-Aug-23 12:21N 66°37' E 013°09'0 0.2
2015-Aug-23 11:18N 66°37' E 013°09'0 0.2
2015-Aug-23 10:33N 66°37' E 013°10'0 0.1
2015-Aug-23 08:31N 66°38' E 013°10'8 1.9
2015-Aug-23 04:09N 66°46' E 013°13'3 5.7
2015-Aug-23 03:33N 66°49' E 013°16'5 5.2
2015-Aug-23 02:33N 66°54' E 013°20'5 5.1
2015-Aug-23 01:33N 66°59' E 013°22'5 4.6
2015-Aug-23 00:33N 67°03' E 013°26'4 4.3
2015-Aug-22 23:33N 67°07' E 013°31'4 4.2
2015-Aug-22 22:33N 67°11' E 013°35'4 4.2
2015-Aug-22 21:33N 67°15' E 013°41'5 4.6
2015-Aug-22 20:33N 67°19' E 013°46'  

Dump ship's entire track history